Time;durP1;ratioP1;P1;durP2;ratioP2;P2;SDS_P1;SDS_P2;PMS_P1;PMS_P2;Temp;Humidity;BMP_temperature;BMP_pressure;BME280_temperature;BME280_humidity;BME280_pressure;Samples;Min_cycle;Max_cycle;Signal;HPM_P1;HPM_P2
2022/07/27 00:01:32;;;;;;;0.65;0.00;;;12.40;99.90;;;;;;5093239;28;20042;-72
2022/07/27 00:03:57;;;;;;;2.42;0.10;;;12.30;99.90;;;;;;5093193;28;20072;-72
2022/07/27 00:06:23;;;;;;;1.23;0.00;;;12.30;99.90;;;;;;5091792;28;20028;-72
2022/07/27 00:08:48;;;;;;;0.30;0.00;;;12.30;99.90;;;;;;5091764;28;20066;-72
2022/07/27 00:11:14;;;;;;;2.03;0.10;;;12.20;99.90;;;;;;5093103;28;20157;-72
2022/07/27 00:13:40;;;;;;;2.67;0.13;;;12.20;99.90;;;;;;5093192;28;20020;-72
2022/07/27 00:16:07;;;;;;;0.40;0.00;;;12.10;99.90;;;;;;5093414;28;20027;-72
2022/07/27 00:18:32;;;;;;;6.18;0.10;;;12.10;99.90;;;;;;5092988;28;20027;-72
2022/07/27 00:20:58;;;;;;;0.75;0.00;;;12.10;99.90;;;;;;5092917;28;20024;-72
2022/07/27 00:23:24;;;;;;;1.17;0.00;;;12.10;99.90;;;;;;5093068;28;20416;-72
2022/07/27 00:25:50;;;;;;;1.90;0.00;;;12.10;99.90;;;;;;5092944;28;20020;-72
2022/07/27 00:28:15;;;;;;;3.25;0.63;;;12.00;99.90;;;;;;5093309;28;20047;-72
2022/07/27 00:30:41;;;;;;;1.85;0.20;;;12.00;99.90;;;;;;5091606;28;20095;-72
2022/07/27 00:33:06;;;;;;;0.45;0.00;;;11.90;99.90;;;;;;5093041;28;20036;-72
2022/07/27 00:35:32;;;;;;;2.05;0.00;;;11.90;99.90;;;;;;5091741;28;20038;-72
2022/07/27 00:37:57;;;;;;;0.40;0.00;;;11.90;99.90;;;;;;5091636;28;20024;-72
2022/07/27 00:40:24;;;;;;;0.85;0.05;;;11.80;99.90;;;;;;5096299;28;20070;-72
2022/07/27 00:42:49;;;;;;;0.65;0.00;;;11.80;99.90;;;;;;5096695;28;20020;-75
2022/07/27 00:45:15;;;;;;;1.38;0.22;;;12.00;99.90;;;;;;5095219;28;20035;-72
2022/07/27 00:47:41;;;;;;;0.00;0.00;;;12.40;99.90;;;;;;5096740;28;20062;-72
2022/07/27 00:50:08;;;;;;;0.43;0.00;;;11.80;99.90;;;;;;5095091;28;20071;-73
2022/07/27 00:52:34;;;;;;;0.63;0.00;;;11.80;99.90;;;;;;5095143;28;20016;-73
2022/07/27 00:55:00;;;;;;;0.10;0.00;;;11.70;99.90;;;;;;5096292;28;20045;-73
2022/07/27 00:57:27;;;;;;;1.55;0.10;;;11.70;99.90;;;;;;5096236;28;20032;-72
2022/07/27 00:59:52;;;;;;;1.67;0.00;;;12.10;99.90;;;;;;5096634;28;20452;-73
2022/07/27 01:02:18;;;;;;;4.30;0.25;;;11.60;99.90;;;;;;5094859;28;20109;-72
2022/07/27 01:04:44;;;;;;;0.80;0.00;;;11.60;99.90;;;;;;5094857;28;20024;-72
2022/07/27 01:07:10;;;;;;;2.58;0.10;;;11.60;99.90;;;;;;5094702;28;20024;-73
2022/07/27 01:12:21;;;;;;;1.23;0.43;;;11.60;99.90;;;;;;5096413;28;20058;-73
2022/07/27 01:14:48;;;;;;;3.95;0.00;;;11.60;99.90;;;;;;5095940;28;20028;-72
2022/07/27 01:17:14;;;;;;;1.98;0.10;;;11.60;99.90;;;;;;5095852;28;20028;-73
2022/07/27 01:19:40;;;;;;;1.05;0.00;;;11.50;99.90;;;;;;5095981;28;20028;-73
2022/07/27 01:22:06;;;;;;;2.80;0.00;;;11.50;99.90;;;;;;5095984;28;20032;-73
2022/07/27 01:24:33;;;;;;;1.05;0.00;;;11.50;99.90;;;;;;5095674;28;20024;-73
2022/07/27 01:27:00;;;;;;;0.88;0.00;;;11.50;99.90;;;;;;5094351;28;20089;-73
2022/07/27 01:29:26;;;;;;;0.00;0.00;;;11.60;99.90;;;;;;5095875;28;20069;-73
2022/07/27 01:31:52;;;;;;;3.95;0.40;;;11.60;99.90;;;;;;5094269;28;20430;-73
2022/07/27 01:34:17;;;;;;;3.50;0.10;;;11.50;99.90;;;;;;5095629;28;20020;-73
2022/07/27 01:36:44;;;;;;;1.13;0.00;;;11.60;99.90;;;;;;5095539;28;20028;-73
2022/07/27 01:39:11;;;;;;;2.22;0.08;;;11.60;99.90;;;;;;5094136;28;20029;-73
2022/07/27 01:41:36;;;;;;;1.55;0.00;;;11.60;99.90;;;;;;5095358;28;20039;-73
2022/07/27 01:44:02;;;;;;;1.17;0.10;;;11.60;99.90;;;;;;5094172;28;20035;-73
2022/07/27 01:46:27;;;;;;;4.05;0.00;;;11.50;99.90;;;;;;5095549;28;20039;-73
2022/07/27 01:48:53;;;;;;;0.08;0.05;;;11.50;99.90;;;;;;5095285;28;20020;-73
2022/07/27 01:51:19;;;;;;;1.75;0.13;;;11.50;99.90;;;;;;5093338;28;20433;-73
2022/07/27 01:53:44;;;;;;;2.17;0.00;;;11.50;99.90;;;;;;5095472;28;20042;-73
2022/07/27 01:56:10;;;;;;;0.13;0.00;;;11.50;99.90;;;;;;5093807;28;20077;-73
2022/07/27 01:58:37;;;;;;;1.00;0.00;;;11.40;99.90;;;;;;5093896;28;20540;-73
2022/07/27 02:01:03;;;;;;;4.13;0.10;;;11.40;99.90;;;;;;5095051;28;20016;-73
2022/07/27 02:03:29;;;;;;;1.85;0.00;;;11.90;99.90;;;;;;5093595;28;20016;-73
2022/07/27 02:05:54;;;;;;;4.13;0.00;;;11.40;99.90;;;;;;5095192;28;20031;-73
2022/07/27 02:08:20;;;;;;;1.23;0.00;;;11.40;99.90;;;;;;5095000;28;20481;-73
2022/07/27 02:13:30;;;;;;;1.00;0.00;;;11.30;99.90;;;;;;5095429;28;20396;-73
2022/07/27 02:15:55;;;;;;;2.10;0.00;;;11.30;99.90;;;;;;5094733;28;20016;-73
2022/07/27 02:18:21;;;;;;;0.40;0.00;;;11.30;99.90;;;;;;5094713;28;20024;-73
2022/07/27 02:20:47;;;;;;;0.88;0.20;;;11.30;99.90;;;;;;5094767;28;20048;-73
2022/07/27 02:23:13;;;;;;;1.17;0.20;;;11.30;99.90;;;;;;5094559;28;20051;-73
2022/07/27 02:25:39;;;;;;;0.25;0.03;;;11.30;99.90;;;;;;5094506;28;20473;-73
2022/07/27 02:28:05;;;;;;;1.27;0.00;;;11.30;99.90;;;;;;5094549;28;20020;-73
2022/07/27 02:30:31;;;;;;;2.33;0.05;;;11.20;99.90;;;;;;5095058;28;20020;-73
2022/07/27 02:32:56;;;;;;;0.40;0.00;;;11.30;99.90;;;;;;5093183;28;20500;-73
2022/07/27 02:35:22;;;;;;;3.50;0.00;;;11.20;99.90;;;;;;5093184;28;20023;-73
2022/07/27 02:37:48;;;;;;;1.35;0.00;;;11.20;99.90;;;;;;5094305;28;20031;-73
2022/07/27 02:40:17;;;;;;;0.68;0.00;;;11.20;99.90;;;;;;5094178;28;20020;-73
2022/07/27 02:42:43;;;;;;;1.55;0.00;;;11.20;99.90;;;;;;5094297;28;20024;-73
2022/07/27 02:45:09;;;;;;;1.52;0.20;;;11.20;99.90;;;;;;5094290;28;20069;-73
2022/07/27 02:47:35;;;;;;;1.20;0.00;;;11.20;99.90;;;;;;5094062;28;20077;-73
2022/07/27 02:50:01;;;;;;;2.85;0.00;;;11.30;99.90;;;;;;5093994;28;20044;-73
2022/07/27 02:52:27;;;;;;;1.85;0.00;;;11.30;99.90;;;;;;5094068;28;20050;-73
2022/07/27 02:54:52;;;;;;;1.75;0.10;;;11.20;99.90;;;;;;5092965;28;20020;-73
2022/07/27 02:57:18;;;;;;;3.15;0.38;;;11.20;99.90;;;;;;5093975;28;20027;-73
2022/07/27 02:59:44;;;;;;;0.40;0.00;;;11.20;99.90;;;;;;5094132;28;20468;-73
2022/07/27 03:02:09;;;;;;;2.17;0.00;;;11.20;99.90;;;;;;5093086;28;20020;-73
2022/07/27 03:04:35;;;;;;;1.95;0.05;;;11.20;99.90;;;;;;5094005;28;20077;-73
2022/07/27 03:07:01;;;;;;;0.65;0.00;;;11.20;99.90;;;;;;5092559;28;20024;-73
2022/07/27 03:09:26;;;;;;;1.98;0.65;;;11.30;99.90;;;;;;5093738;28;20407;-73
2022/07/27 03:11:52;;;;;;;7.38;0.00;;;11.30;99.90;;;;;;5093824;28;20547;-73
2022/07/27 03:14:17;;;;;;;2.55;0.15;;;11.20;99.90;;;;;;5094008;28;20364;-73
2022/07/27 03:16:43;;;;;;;1.33;0.47;;;11.30;99.90;;;;;;5093789;28;20020;-73
2022/07/27 03:19:08;;;;;;;2.83;0.43;;;11.30;99.90;;;;;;5092462;28;20469;-73
2022/07/27 03:21:34;;;;;;;0.35;0.05;;;11.30;99.90;;;;;;5092360;28;20093;-73
2022/07/27 03:23:59;;;;;;;5.07;0.00;;;11.40;99.90;;;;;;5094150;28;20027;-73
2022/07/27 03:26:25;;;;;;;1.45;0.00;;;11.40;99.90;;;;;;5092167;28;20020;-73
2022/07/27 03:28:51;;;;;;;1.33;0.00;;;11.40;99.90;;;;;;5092361;28;20033;-73
2022/07/27 03:31:16;;;;;;;0.65;0.00;;;11.40;99.90;;;;;;5093437;28;20091;-73
2022/07/27 03:33:42;;;;;;;0.95;0.00;;;11.40;99.90;;;;;;5092273;28;20107;-73
2022/07/27 03:36:07;;;;;;;3.00;0.00;;;11.50;99.90;;;;;;5093527;28;20365;-73
2022/07/27 03:38:33;;;;;;;2.20;0.25;;;11.50;99.90;;;;;;5093506;28;20028;-73
2022/07/27 03:40:59;;;;;;;0.35;0.00;;;11.60;99.90;;;;;;5093410;28;20034;-73
2022/07/27 03:43:24;;;;;;;0.85;0.00;;;11.60;99.90;;;;;;5093630;28;20102;-73
2022/07/27 03:45:50;;;;;;;0.47;0.43;;;11.70;99.90;;;;;;5092046;28;20024;-73
2022/07/27 03:48:15;;;;;;;0.68;0.20;;;11.70;99.90;;;;;;5093443;28;20028;-73
2022/07/27 03:50:41;;;;;;;0.52;0.00;;;11.80;99.90;;;;;;5092053;28;20055;-73
2022/07/27 03:53:07;;;;;;;0.80;0.08;;;11.80;99.90;;;;;;5093561;28;20468;-73
2022/07/27 03:55:33;;;;;;;0.25;0.10;;;11.90;99.90;;;;;;5093595;28;20496;-73
2022/07/27 03:57:59;;;;;;;3.03;0.00;;;11.90;99.90;;;;;;5093619;28;20024;-73
2022/07/27 04:00:24;;;;;;;1.75;0.22;;;12.00;99.90;;;;;;5093214;28;20435;-73
2022/07/27 04:02:50;;;;;;;0.22;0.00;;;12.00;99.90;;;;;;5092337;28;20028;-73
2022/07/27 04:05:16;;;;;;;1.30;0.00;;;12.10;99.90;;;;;;5093411;28;20164;-73
2022/07/27 04:07:42;;;;;;;2.05;0.00;;;12.10;99.90;;;;;;5093301;28;20024;-73
2022/07/27 04:10:08;;;;;;;0.40;0.00;;;12.20;99.90;;;;;;5093066;28;20481;-73
2022/07/27 04:12:38;;;;;;;2.15;0.30;;;12.30;99.90;;;;;;5091893;28;20400;-73
2022/07/27 04:15:07;;;;;;;1.88;0.00;;;12.30;99.90;;;;;;5095294;28;20020;-73
2022/07/27 04:17:33;;;;;;;1.00;0.20;;;12.40;99.90;;;;;;5096902;28;20530;-73
2022/07/27 04:19:58;;;;;;;0.88;0.05;;;12.40;99.90;;;;;;5097227;28;20048;-73
2022/07/27 04:22:24;;;;;;;0.47;0.17;;;12.50;99.90;;;;;;5097254;28;20023;-73
2022/07/27 04:24:50;;;;;;;1.80;0.00;;;12.50;99.90;;;;;;5096914;28;20024;-73
2022/07/27 04:27:15;;;;;;;0.00;0.00;;;12.60;99.90;;;;;;5096858;28;20384;-73
2022/07/27 04:29:41;;;;;;;1.58;0.00;;;12.60;99.90;;;;;;5095502;28;20073;-73
2022/07/27 04:32:06;;;;;;;1.83;0.10;;;12.70;99.90;;;;;;5097326;28;20028;-73
2022/07/27 04:34:32;;;;;;;1.63;0.00;;;12.70;99.90;;;;;;5096685;28;20031;-73
2022/07/27 04:36:57;;;;;;;1.73;0.10;;;12.80;99.90;;;;;;5096749;28;20028;-73
2022/07/27 04:39:23;;;;;;;1.38;0.00;;;12.90;99.90;;;;;;5096755;28;20409;-73
2022/07/27 04:41:48;;;;;;;0.52;0.00;;;13.00;99.90;;;;;;5096624;28;20052;-73
2022/07/27 04:44:14;;;;;;;5.53;0.65;;;13.00;99.90;;;;;;5096534;28;20499;-73
2022/07/27 04:46:40;;;;;;;0.30;0.00;;;13.10;99.90;;;;;;5096469;28;20096;-73
2022/07/27 04:49:05;;;;;;;1.63;0.00;;;13.20;99.90;;;;;;5096512;28;20012;-73
2022/07/27 04:51:31;;;;;;;0.30;0.05;;;13.20;99.90;;;;;;5096315;28;20039;-73
2022/07/27 04:53:56;;;;;;;2.53;0.28;;;13.40;99.90;;;;;;5096276;28;20035;-73
2022/07/27 04:56:22;;;;;;;1.63;0.00;;;13.40;99.90;;;;;;5096543;28;20519;-73
2022/07/27 04:58:47;;;;;;;3.58;0.00;;;13.50;99.90;;;;;;5096560;28;20016;-73
2022/07/27 05:01:13;;;;;;;0.73;0.00;;;13.70;99.90;;;;;;5096309;28;20032;-73
2022/07/27 05:03:41;;;;;;;2.95;0.00;;;13.70;99.90;;;;;;5096132;28;20020;-73
2022/07/27 05:06:06;;;;;;;1.58;0.00;;;13.90;99.90;;;;;;5096344;28;20077;-73
2022/07/27 05:08:32;;;;;;;1.75;0.25;;;14.00;99.90;;;;;;5096180;28;20556;-73
2022/07/27 05:10:57;;;;;;;0.52;0.00;;;14.20;99.90;;;;;;5095957;28;20028;-73
2022/07/27 05:13:23;;;;;;;0.10;0.00;;;14.50;99.90;;;;;;5096036;28;20020;-73
2022/07/27 05:15:49;;;;;;;2.22;0.00;;;14.50;99.90;;;;;;5095951;28;20025;-73
2022/07/27 05:18:14;;;;;;;3.85;0.47;;;14.70;99.90;;;;;;5095757;28;20081;-73
2022/07/27 05:20:40;;;;;;;3.08;0.25;;;14.90;99.90;;;;;;5094483;28;20023;-73
2022/07/27 05:23:05;;;;;;;2.05;0.00;;;15.10;99.90;;;;;;5096037;28;20119;-72
2022/07/27 05:25:31;;;;;;;0.77;0.00;;;15.30;99.90;;;;;;5094719;28;20141;-73
2022/07/27 05:27:56;;;;;;;2.50;0.25;;;15.60;99.90;;;;;;5095628;28;20078;-72
2022/07/27 05:30:23;;;;;;;0.98;0.20;;;15.70;99.90;;;;;;5095867;28;20024;-72
2022/07/27 05:32:49;;;;;;;3.72;0.10;;;15.90;99.90;;;;;;5095928;28;20358;-72
2022/07/27 05:35:14;;;;;;;3.55;0.20;;;16.00;99.90;;;;;;5094102;28;20081;-72
2022/07/27 05:37:40;;;;;;;2.30;0.00;;;16.20;99.90;;;;;;5096182;28;20128;-72
2022/07/27 05:40:07;;;;;;;1.17;0.00;;;16.30;99.90;;;;;;5095598;28;20024;-72
2022/07/27 05:42:33;;;;;;;2.20;0.30;;;16.50;99.90;;;;;;5095476;28;20405;-72
2022/07/27 05:44:59;;;;;;;2.88;0.05;;;16.60;99.90;;;;;;5095893;28;20016;-72
2022/07/27 05:47:25;;;;;;;1.35;0.00;;;16.80;99.90;;;;;;5095367;28;20039;-72
2022/07/27 05:49:51;;;;;;;0.88;0.03;;;16.90;99.90;;;;;;5095488;28;20354;-72
2022/07/27 05:52:16;;;;;;;1.77;0.13;;;17.00;99.90;;;;;;5095472;28;20023;-72
2022/07/27 05:54:43;;;;;;;3.72;0.15;;;17.10;99.90;;;;;;5095182;28;20528;-72
2022/07/27 05:57:08;;;;;;;0.52;0.00;;;17.30;99.90;;;;;;5095083;28;20111;-72
2022/07/27 05:59:35;;;;;;;1.55;0.00;;;17.40;99.90;;;;;;5095247;28;20157;-72
2022/07/27 06:02:01;;;;;;;1.80;0.00;;;17.50;99.90;;;;;;5094988;28;20020;-72
2022/07/27 06:04:26;;;;;;;4.55;0.20;;;17.40;99.90;;;;;;5094973;28;20139;-72
2022/07/27 06:09:36;;;;;;;3.22;0.00;;;17.50;99.90;;;;;;5095371;28;20090;-72
2022/07/27 06:12:02;;;;;;;4.03;0.00;;;17.40;99.90;;;;;;5093373;28;20028;-72
2022/07/27 06:14:28;;;;;;;0.73;0.00;;;17.40;99.90;;;;;;5093479;28;20046;-72
2022/07/27 06:16:54;;;;;;;4.22;0.00;;;17.40;99.90;;;;;;5093489;28;20138;-72
2022/07/27 06:19:20;;;;;;;2.13;0.20;;;17.50;99.90;;;;;;5093541;28;20063;-72
2022/07/27 06:21:45;;;;;;;4.47;0.10;;;17.50;99.90;;;;;;5094888;28;20020;-72
2022/07/27 06:24:11;;;;;;;1.67;0.00;;;17.50;99.90;;;;;;5093341;28;20044;-72
2022/07/27 06:26:37;;;;;;;1.88;0.00;;;17.60;99.90;;;;;;5094470;28;20027;-72
2022/07/27 06:29:02;;;;;;;1.58;0.00;;;17.50;99.90;;;;;;5094979;28;20016;-72
2022/07/27 06:31:29;;;;;;;0.90;0.13;;;17.40;99.90;;;;;;5094389;28;20020;-72
2022/07/27 06:33:56;;;;;;;1.83;0.10;;;17.40;99.90;;;;;;5094573;28;20020;-72
2022/07/27 06:36:21;;;;;;;3.35;0.00;;;17.50;99.90;;;;;;5092892;28;20024;-73
2022/07/27 06:38:48;;;;;;;1.00;0.00;;;17.50;99.90;;;;;;5094280;28;20388;-73
2022/07/27 06:41:13;;;;;;;3.53;0.00;;;17.50;99.90;;;;;;5094070;28;20023;-73
2022/07/27 06:43:39;;;;;;;3.38;0.50;;;17.50;99.90;;;;;;5094659;28;20598;-73
2022/07/27 06:46:06;;;;;;;0.20;0.00;;;17.80;99.90;;;;;;5093984;28;20461;-73
2022/07/27 06:48:32;;;;;;;1.33;0.10;;;17.70;99.90;;;;;;5092826;28;20028;-73
2022/07/27 06:50:58;;;;;;;0.75;0.00;;;17.70;99.90;;;;;;5093954;28;20365;-73
2022/07/27 06:53:25;;;;;;;3.20;0.10;;;17.70;99.90;;;;;;5093908;28;20020;-73
2022/07/27 06:55:51;;;;;;;0.38;0.00;;;17.60;99.90;;;;;;5093884;28;20514;-73
2022/07/27 06:58:17;;;;;;;2.22;0.00;;;17.50;99.90;;;;;;5093845;28;20034;-73
2022/07/27 07:00:44;;;;;;;2.30;0.00;;;17.50;99.90;;;;;;5093703;28;20028;-73
2022/07/27 07:03:10;;;;;;;2.53;0.20;;;17.40;99.90;;;;;;5093697;28;20031;-73
2022/07/27 07:05:44;;;;;;;0.08;0.00;;;17.20;99.90;;;;;;5092326;28;20423;-73
2022/07/27 07:08:10;;;;;;;0.43;0.00;;;17.10;99.90;;;;;;5108777;22;20070;-75
2022/07/27 07:10:41;;;;;;;2.30;0.00;;;17.20;99.90;;;;;;5114177;28;20031;-75
2022/07/27 07:13:07;;;;;;;0.73;0.00;;;17.40;99.90;;;;;;5112914;28;20016;-76
2022/07/27 07:15:34;;;;;;;2.42;0.10;;;17.60;99.90;;;;;;5114186;28;20425;-75
2022/07/27 07:18:02;;;;;;;1.80;0.13;;;17.80;99.90;;;;;;5114020;28;20015;-75
2022/07/27 07:20:29;;;;;;;0.97;0.00;;;18.00;99.90;;;;;;5113868;28;20085;-75
2022/07/27 07:22:54;;;;;;;0.30;0.00;;;18.10;99.90;;;;;;5114576;28;20020;-75
2022/07/27 07:25:20;;;;;;;0.57;0.10;;;18.20;99.90;;;;;;5112607;28;20076;-75
2022/07/27 07:27:46;;;;;;;0.40;0.00;;;18.20;99.90;;;;;;5113782;28;20539;-79
2022/07/27 07:30:12;;;;;;;0.00;0.00;;;18.20;99.90;;;;;;5112604;28;20383;-75
2022/07/27 07:32:37;;;;;;;1.38;0.10;;;18.40;99.90;;;;;;5113936;28;20019;-75
2022/07/27 07:35:03;;;;;;;0.80;0.10;;;18.60;99.90;;;;;;5113882;28;20023;-75
2022/07/27 07:37:31;;;;;;;1.77;0.15;;;18.70;99.90;;;;;;5113763;28;20034;-76
2022/07/27 07:39:58;;;;;;;0.10;0.10;;;18.80;99.90;;;;;;5113792;28;20027;-75
2022/07/27 07:42:24;;;;;;;0.60;0.00;;;18.80;99.40;;;;;;5113694;28;20031;-75
2022/07/27 07:44:50;;;;;;;2.33;0.00;;;18.80;99.90;;;;;;5114300;28;20027;-75
2022/07/27 07:47:15;;;;;;;0.25;0.00;;;18.90;99.90;;;;;;5112355;28;20392;-73
2022/07/27 07:49:41;;;;;;;1.10;0.00;;;19.00;99.60;;;;;;5116515;28;20177;-75
2022/07/27 07:52:07;;;;;;;0.82;0.00;;;19.10;99.70;;;;;;5117967;28;20028;-75
2022/07/27 07:54:32;;;;;;;0.10;0.00;;;19.20;99.10;;;;;;5117971;28;20039;-75
2022/07/27 07:56:58;;;;;;;2.63;0.00;;;19.20;97.40;;;;;;5117796;28;20063;-75
2022/07/27 07:59:23;;;;;;;1.58;0.00;;;19.30;96.30;;;;;;5116503;28;20503;-75
2022/07/27 08:01:49;;;;;;;2.13;0.10;;;19.30;95.60;;;;;;5118272;28;20507;-75
2022/07/27 08:04:15;;;;;;;0.25;0.00;;;19.30;96.10;;;;;;5117662;28;20027;-75
2022/07/27 08:06:40;;;;;;;1.05;0.00;;;19.50;97.10;;;;;;5117542;28;20058;-75
2022/07/27 08:09:07;;;;;;;1.25;0.00;;;19.50;94.30;;;;;;5116134;28;20016;-75
2022/07/27 08:11:33;;;;;;;3.03;0.20;;;19.50;94.50;;;;;;5117530;28;20038;-76
2022/07/27 08:13:58;;;;;;;0.38;0.00;;;19.60;95.40;;;;;;5118260;28;20421;-75
2022/07/27 08:16:24;;;;;;;1.85;0.00;;;19.70;94.50;;;;;;5117313;28;20020;-76
2022/07/27 08:18:50;;;;;;;2.33;0.00;;;19.60;92.80;;;;;;5116147;28;20027;-75
2022/07/27 08:21:16;;;;;;;1.67;0.00;;;19.40;92.60;;;;;;5117318;28;20027;-76
2022/07/27 08:23:41;;;;;;;2.88;0.00;;;19.40;93.70;;;;;;5117277;28;20106;-75
2022/07/27 08:26:08;;;;;;;1.88;0.00;;;18.80;93.60;;;;;;5117432;28;20118;-75
2022/07/27 08:28:34;;;;;;;1.38;0.20;;;18.40;93.00;;;;;;5117480;28;20500;-75
2022/07/27 08:31:00;;;;;;;0.68;0.00;;;18.30;94.20;;;;;;5117101;27;20414;-75
2022/07/27 08:33:26;;;;;;;0.13;0.00;;;18.30;95.50;;;;;;5117133;28;20015;-76
2022/07/27 08:35:52;;;;;;;0.35;0.10;;;18.60;92.80;;;;;;5116970;28;20024;-76
2022/07/27 08:38:18;;;;;;;1.77;0.00;;;18.90;94.30;;;;;;5115727;28;20107;-75
2022/07/27 08:40:46;;;;;;;0.30;0.00;;;19.20;94.30;;;;;;5115940;28;20032;-76
2022/07/27 08:43:18;;;;;;;0.73;0.03;;;19.60;95.00;;;;;;5117020;28;20034;-76
2022/07/27 08:45:45;;;;;;;2.42;0.10;;;19.70;94.40;;;;;;5115544;28;20023;-76
2022/07/27 08:48:12;;;;;;;1.73;0.00;;;19.50;94.50;;;;;;5116846;28;20015;-76
2022/07/27 08:50:39;;;;;;;1.52;0.00;;;19.50;94.90;;;;;;5116952;28;20103;-75
2022/07/27 08:53:08;;;;;;;1.55;0.00;;;19.60;94.10;;;;;;5116787;28;20422;-76
2022/07/27 08:55:35;;;;;;;;;;;19.90;95.30;;;;;;5116329;28;20020;-76
2022/07/27 08:58:01;;;;;;;2.70;0.00;;;20.20;94.60;;;;;;5115374;28;19911;-76
2022/07/27 09:00:28;;;;;;;1.42;0.00;;;20.20;92.40;;;;;;5113662;28;20031;-76
2022/07/27 09:02:54;;;;;;;3.83;0.00;;;20.90;91.90;;;;;;5117144;28;20038;-76
2022/07/27 09:05:20;;;;;;;6.05;0.00;;;21.10;90.90;;;;;;5116320;28;20077;-76
2022/07/27 09:07:47;;;;;;;1.75;0.00;;;21.30;90.00;;;;;;5116298;27;20038;-76
2022/07/27 09:10:34;;;;;;;1.13;0.00;;;21.50;86.50;;;;;;5116270;28;20023;-76
2022/07/27 09:13:18;;;;;;;1.48;0.00;;;21.20;86.10;;;;;;5115313;28;20026;-76
2022/07/27 09:15:45;;;;;;;0.90;0.00;;;20.70;89.70;;;;;;5116382;27;20024;-76
2022/07/27 09:18:25;;;;;;;1.05;0.00;;;20.30;90.90;;;;;;5116200;28;20028;-76
2022/07/27 09:21:20;;;;;;;3.95;0.03;;;19.90;91.80;;;;;;5114830;28;20026;-77
2022/07/27 09:24:06;;;;;;;0.73;0.00;;;19.60;93.30;;;;;;5115794;28;20020;-76
2022/07/27 09:26:32;;;;;;;0.75;0.00;;;19.20;93.50;;;;;;5114825;28;20031;-76
2022/07/27 09:29:18;;;;;;;1.77;0.00;;;19.00;94.00;;;;;;5115995;28;20031;-76
2022/07/27 09:31:45;;;;;;;2.17;0.00;;;18.70;95.10;;;;;;5114762;28;20050;-75
2022/07/27 09:34:12;;;;;;;3.08;0.00;;;18.60;96.20;;;;;;5116256;28;20015;-75
2022/07/27 09:36:52;;;;;;;0.73;0.00;;;18.40;95.70;;;;;;5114600;28;20019;-75
2022/07/27 09:39:21;;;;;;;0.68;0.00;;;18.30;96.40;;;;;;5115933;28;20023;-76
2022/07/27 09:41:54;;;;;;;;;;;18.40;97.10;;;;;;5116242;28;20080;-76
2022/07/27 09:44:33;;;;;;;0.40;0.20;;;18.80;97.30;;;;;;5115605;28;19950;-75
2022/07/27 09:46:59;;;;;;;0.70;0.17;;;19.40;95.40;;;;;;5116162;28;20024;-75
2022/07/27 09:49:33;;;;;;;1.58;0.00;;;19.90;94.80;;;;;;5115651;28;20093;-75
2022/07/27 09:52:03;;;;;;;0.30;0.00;;;20.30;91.30;;;;;;5114279;28;20072;-75
2022/07/27 09:54:43;;;;;;;2.20;0.20;;;20.40;91.40;;;;;;5114312;28;20015;-75
2022/07/27 09:57:08;;;;;;;0.80;0.10;;;20.10;91.20;;;;;;5115716;28;20169;-75
2022/07/27 09:59:34;;;;;;;1.73;0.05;;;20.10;91.20;;;;;;5115454;28;20066;-75
2022/07/27 10:02:01;;;;;;;1.27;0.17;;;20.40;87.20;;;;;;5115651;28;20089;-75
2022/07/27 10:04:27;;;;;;;1.65;0.00;;;20.70;87.40;;;;;;5114112;28;20089;-75
2022/07/27 10:06:53;;;;;;;2.08;0.00;;;21.10;84.80;;;;;;5115518;28;20027;-75
2022/07/27 10:09:19;;;;;;;0.30;0.00;;;21.40;85.20;;;;;;5113747;28;20028;-75
2022/07/27 10:11:47;;;;;;;2.97;0.00;;;21.50;84.20;;;;;;5114828;28;20019;-75
2022/07/27 10:14:13;;;;;;;1.45;0.00;;;21.40;79.70;;;;;;5115059;28;20532;-76
2022/07/27 10:16:40;;;;;;;1.17;0.00;;;21.60;83.10;;;;;;5115432;28;20487;-74
2022/07/27 10:19:24;;;;;;;1.15;0.00;;;21.90;81.20;;;;;;5113941;28;20024;-73
2022/07/27 10:21:50;;;;;;;1.55;0.20;;;22.20;79.20;;;;;;5114246;28;20055;-73
2022/07/27 10:24:35;;;;;;;2.83;0.28;;;22.60;82.10;;;;;;5115666;28;20073;-74
2022/07/27 10:27:25;;;;;;;0.93;0.00;;;22.80;74.70;;;;;;5115262;27;20031;-74
2022/07/27 10:29:51;;;;;;;0.85;0.00;;;23.10;74.90;;;;;;5114972;28;20047;-74
2022/07/27 10:32:43;;;;;;;0.00;0.00;;;23.40;74.80;;;;;;5115230;28;20023;-74
2022/07/27 10:35:35;;;;;;;0.00;0.00;;;23.60;73.60;;;;;;5113252;28;20115;-73
2022/07/27 10:38:43;;;;;;;0.75;0.00;;;24.00;72.10;;;;;;5115100;28;20091;-74
2022/07/27 10:41:24;;;;;;;2.10;0.20;;;24.10;69.10;;;;;;5114651;28;20384;-74
2022/07/27 10:44:22;;;;;;;0.30;0.00;;;24.30;68.20;;;;;;5113430;28;20043;-74
2022/07/27 10:46:57;;;;;;;0.20;0.00;;;23.90;68.80;;;;;;5114420;28;20024;-73
2022/07/27 10:49:34;;;;;;;1.27;0.00;;;23.40;72.40;;;;;;5113318;28;20031;-73
2022/07/27 10:52:01;;;;;;;0.00;0.00;;;22.80;71.00;;;;;;5114579;28;20051;-74
2022/07/27 10:54:38;;;;;;;0.10;0.00;;;22.20;72.40;;;;;;5114515;28;20072;-74
2022/07/27 10:57:07;;;;;;;0.00;0.00;;;21.90;75.60;;;;;;5114579;28;20112;-75
2022/07/27 10:59:39;;;;;;;1.27;0.00;;;21.80;76.90;;;;;;5114369;28;20026;-74
2022/07/27 11:02:06;;;;;;;0.40;0.00;;;21.60;76.20;;;;;;5114655;28;20035;-74
2022/07/27 11:04:33;;;;;;;0.40;0.00;;;21.70;79.30;;;;;;5114395;28;20023;-74
2022/07/27 11:07:00;;;;;;;1.35;0.10;;;21.90;79.10;;;;;;5114152;28;20027;-74
2022/07/27 11:09:36;;;;;;;0.57;0.00;;;21.90;77.80;;;;;;5112851;28;20480;-74
2022/07/27 11:12:04;;;;;;;0.57;0.17;;;21.80;78.60;;;;;;5114836;28;20044;-74
2022/07/27 11:14:30;;;;;;;0.07;0.00;;;21.80;77.00;;;;;;5112957;28;20019;-73
2022/07/27 11:16:59;;;;;;;0.10;0.00;;;22.00;79.70;;;;;;5114488;28;20015;-73
2022/07/27 11:19:25;;;;;;;0.20;0.00;;;22.20;77.10;;;;;;5114080;28;20027;-73
2022/07/27 11:21:52;;;;;;;2.58;0.00;;;22.50;73.20;;;;;;5114624;28;20122;-74
2022/07/27 11:24:18;;;;;;;2.05;0.43;;;21.60;75.00;;;;;;5113491;28;20043;-73
2022/07/27 11:26:47;;;;;;;0.10;0.10;;;23.40;73.30;;;;;;5113973;28;20019;-73
2022/07/27 11:29:15;;;;;;;1.40;0.00;;;23.60;70.20;;;;;;5114317;28;20465;-73
2022/07/27 11:31:43;;;;;;;1.13;0.00;;;24.10;71.00;;;;;;5113929;28;20031;-74
2022/07/27 11:34:10;;;;;;;1.00;0.00;;;23.90;66.50;;;;;;5114027;28;20015;-74
2022/07/27 11:36:41;;;;;;;0.47;0.00;;;24.10;69.10;;;;;;5113965;28;20020;-74
2022/07/27 11:39:23;;;;;;;0.20;0.00;;;24.40;67.30;;;;;;5113904;28;20030;-74
2022/07/27 11:41:53;;;;;;;0.00;0.00;;;24.60;68.50;;;;;;5113955;28;20058;-74
2022/07/27 11:44:19;;;;;;;0.22;0.00;;;24.40;64.20;;;;;;5113861;28;20116;-74
2022/07/27 11:46:45;;;;;;;0.20;0.00;;;24.00;66.10;;;;;;5113798;28;20077;-74
2022/07/27 11:49:14;;;;;;;0.25;0.00;;;23.60;67.30;;;;;;5113853;28;20016;-74
2022/07/27 11:51:48;;;;;;;0.55;0.00;;;23.20;66.90;;;;;;5112267;28;20093;-74
2022/07/27 11:54:22;;;;;;;0.00;0.00;;;22.90;66.10;;;;;;5112544;28;20491;-74
2022/07/27 11:56:53;;;;;;;0.00;0.00;;;22.50;68.50;;;;;;5113993;28;20035;-74
2022/07/27 11:59:21;;;;;;;0.10;0.10;;;22.10;68.50;;;;;;5112458;28;20019;-74
2022/07/27 12:01:57;;;;;;;0.20;0.00;;;21.80;67.80;;;;;;5113658;28;20039;-74
2022/07/27 12:04:26;;;;;;;0.00;0.00;;;21.60;67.80;;;;;;5113733;28;20160;-73
2022/07/27 12:06:56;;;;;;;0.00;0.00;;;21.50;69.70;;;;;;5113509;28;20027;-73
2022/07/27 12:09:23;;;;;;;0.70;0.00;;;21.30;71.00;;;;;;5113564;28;20028;-74
2022/07/27 12:11:59;;;;;;;0.00;0.00;;;21.50;75.10;;;;;;5113607;28;20020;-74
2022/07/27 12:14:46;;;;;;;0.90;0.00;;;21.50;70.80;;;;;;5114246;28;20103;-74
2022/07/27 12:17:19;;;;;;;0.82;0.00;;;21.40;72.80;;;;;;5114059;28;20024;-74
2022/07/27 12:19:57;;;;;;;0.22;0.00;;;21.50;74.60;;;;;;5112176;28;20027;-74
2022/07/27 12:22:23;;;;;;;0.00;0.00;;;21.60;75.30;;;;;;5112565;28;20111;-74
2022/07/27 12:24:49;;;;;;;1.88;0.35;;;21.70;71.60;;;;;;5113499;28;20095;-74
2022/07/27 12:27:15;;;;;;;0.20;0.00;;;21.80;73.90;;;;;;5113547;28;20491;-74
2022/07/27 12:30:14;;;;;;;0.57;0.15;;;21.80;70.30;;;;;;5113321;28;20374;-74
2022/07/27 12:32:43;;;;;;;0.65;0.00;;;21.70;68.90;;;;;;5090515;28;20444;-73
2022/07/27 12:35:27;;;;;;;0.00;0.00;;;21.60;71.60;;;;;;5115176;28;20516;-73
2022/07/27 12:38:12;;;;;;;1.27;0.00;;;21.70;70.80;;;;;;5117166;27;20023;-73
2022/07/27 12:40:49;;;;;;;0.40;0.00;;;21.70;72.80;;;;;;5117331;28;20492;-74
2022/07/27 12:43:20;;;;;;;2.42;0.25;;;21.80;73.50;;;;;;5115887;28;20027;-74
2022/07/27 12:45:48;;;;;;;2.20;0.00;;;21.90;74.70;;;;;;5116908;28;20051;-73
2022/07/27 12:48:16;;;;;;;0.03;0.00;;;22.00;75.20;;;;;;5115705;28;20106;-74
2022/07/27 12:50:45;;;;;;;1.45;0.00;;;22.10;75.90;;;;;;5116780;28;20023;-73
2022/07/27 12:53:12;;;;;;;1.17;0.00;;;22.20;73.70;;;;;;5116792;28;20016;-74
2022/07/27 12:55:39;;;;;;;0.10;0.00;;;22.60;76.40;;;;;;5115420;28;20476;-74
2022/07/27 12:58:09;;;;;;;0.22;0.03;;;23.10;75.10;;;;;;5117000;28;20460;-74
2022/07/27 13:00:36;;;;;;;3.10;0.00;;;23.30;73.40;;;;;;5117252;28;20096;-74